sensor_id;sensor_type;location;lat;lon;timestamp;P1;durP1;ratioP1;P2;durP2;ratioP2
60502;SDS011;51448;51.660;5.824;2023-04-25T00:02:08;18.45;;;5.78;;
60502;SDS011;51448;51.660;5.824;2023-04-25T00:04:36;15.35;;;5.70;;
60502;SDS011;51448;51.660;5.824;2023-04-25T00:07:05;18.05;;;6.38;;
60502;SDS011;51448;51.660;5.824;2023-04-25T00:09:33;17.48;;;6.60;;
60502;SDS011;51448;51.660;5.824;2023-04-25T00:12:01;17.67;;;6.05;;
60502;SDS011;51448;51.660;5.824;2023-04-25T00:14:29;19.27;;;6.32;;
60502;SDS011;51448;51.660;5.824;2023-04-25T00:16:57;15.20;;;6.05;;
60502;SDS011;51448;51.660;5.824;2023-04-25T00:19:25;18.52;;;5.70;;
60502;SDS011;51448;51.660;5.824;2023-04-25T00:21:55;18.02;;;5.88;;
60502;SDS011;51448;51.660;5.824;2023-04-25T00:24:23;18.27;;;5.65;;
60502;SDS011;51448;51.660;5.824;2023-04-25T00:26:50;14.30;;;5.30;;
60502;SDS011;51448;51.660;5.824;2023-04-25T00:29:18;16.85;;;5.97;;
60502;SDS011;51448;51.660;5.824;2023-04-25T00:31:45;13.10;;;5.38;;
60502;SDS011;51448;51.660;5.824;2023-04-25T00:34:13;18.80;;;6.03;;
60502;SDS011;51448;51.660;5.824;2023-04-25T00:36:41;16.08;;;5.75;;
60502;SDS011;51448;51.660;5.824;2023-04-25T00:39:09;18.70;;;5.97;;
60502;SDS011;51448;51.660;5.824;2023-04-25T00:41:36;20.55;;;6.35;;
60502;SDS011;51448;51.660;5.824;2023-04-25T00:44:04;16.60;;;5.85;;
60502;SDS011;51448;51.660;5.824;2023-04-25T00:46:34;16.38;;;6.82;;
60502;SDS011;51448;51.660;5.824;2023-04-25T00:49:03;20.45;;;6.47;;
60502;SDS011;51448;51.660;5.824;2023-04-25T00:51:31;17.20;;;5.50;;
60502;SDS011;51448;51.660;5.824;2023-04-25T00:54:01;16.70;;;5.40;;
60502;SDS011;51448;51.660;5.824;2023-04-25T00:56:29;19.70;;;6.00;;
60502;SDS011;51448;51.660;5.824;2023-04-25T00:58:57;17.33;;;5.47;;
60502;SDS011;51448;51.660;5.824;2023-04-25T01:01:24;19.67;;;6.43;;
60502;SDS011;51448;51.660;5.824;2023-04-25T01:03:53;15.55;;;5.97;;
60502;SDS011;51448;51.660;5.824;2023-04-25T01:06:21;15.93;;;5.53;;
60502;SDS011;51448;51.660;5.824;2023-04-25T01:08:49;21.20;;;5.82;;
60502;SDS011;51448;51.660;5.824;2023-04-25T01:11:20;24.92;;;5.90;;
60502;SDS011;51448;51.660;5.824;2023-04-25T01:13:47;16.05;;;5.55;;
60502;SDS011;51448;51.660;5.824;2023-04-25T01:16:15;19.83;;;5.68;;
60502;SDS011;51448;51.660;5.824;2023-04-25T01:18:43;18.58;;;6.32;;
60502;SDS011;51448;51.660;5.824;2023-04-25T01:21:12;17.45;;;6.18;;
60502;SDS011;51448;51.660;5.824;2023-04-25T01:23:40;15.15;;;5.72;;
60502;SDS011;51448;51.660;5.824;2023-04-25T01:26:10;18.25;;;5.88;;
60502;SDS011;51448;51.660;5.824;2023-04-25T01:28:39;17.15;;;5.47;;
60502;SDS011;51448;51.660;5.824;2023-04-25T01:31:11;16.48;;;5.88;;
60502;SDS011;51448;51.660;5.824;2023-04-25T01:33:40;21.55;;;6.03;;
60502;SDS011;51448;51.660;5.824;2023-04-25T01:36:07;19.48;;;6.10;;
60502;SDS011;51448;51.660;5.824;2023-04-25T01:38:36;18.98;;;6.05;;
60502;SDS011;51448;51.660;5.824;2023-04-25T01:41:04;16.55;;;5.93;;
60502;SDS011;51448;51.660;5.824;2023-04-25T01:43:32;20.23;;;6.05;;
60502;SDS011;51448;51.660;5.824;2023-04-25T01:46:00;19.30;;;6.05;;
60502;SDS011;51448;51.660;5.824;2023-04-25T01:48:28;16.70;;;5.68;;
60502;SDS011;51448;51.660;5.824;2023-04-25T01:50:56;16.90;;;5.80;;
60502;SDS011;51448;51.660;5.824;2023-04-25T01:53:24;16.55;;;6.20;;
60502;SDS011;51448;51.660;5.824;2023-04-25T01:55:52;16.40;;;5.95;;
60502;SDS011;51448;51.660;5.824;2023-04-25T01:58:22;17.38;;;5.80;;
60502;SDS011;51448;51.660;5.824;2023-04-25T02:01:02;20.85;;;6.40;;
60502;SDS011;51448;51.660;5.824;2023-04-25T02:03:38;20.60;;;6.75;;
60502;SDS011;51448;51.660;5.824;2023-04-25T02:06:11;17.42;;;5.97;;
60502;SDS011;51448;51.660;5.824;2023-04-25T02:08:43;24.45;;;6.63;;
60502;SDS011;51448;51.660;5.824;2023-04-25T02:11:13;20.20;;;6.93;;
60502;SDS011;51448;51.660;5.824;2023-04-25T02:13:49;16.35;;;5.90;;
60502;SDS011;51448;51.660;5.824;2023-04-25T02:16:56;17.38;;;6.13;;
60502;SDS011;51448;51.660;5.824;2023-04-25T02:19:24;20.77;;;6.88;;
60502;SDS011;51448;51.660;5.824;2023-04-25T02:21:52;18.70;;;6.20;;
60502;SDS011;51448;51.660;5.824;2023-04-25T02:24:19;21.92;;;6.68;;
60502;SDS011;51448;51.660;5.824;2023-04-25T02:26:47;21.88;;;7.05;;
60502;SDS011;51448;51.660;5.824;2023-04-25T02:29:16;19.63;;;6.55;;
60502;SDS011;51448;51.660;5.824;2023-04-25T02:31:43;18.50;;;6.50;;
60502;SDS011;51448;51.660;5.824;2023-04-25T02:34:11;22.08;;;7.22;;
60502;SDS011;51448;51.660;5.824;2023-04-25T02:36:39;22.20;;;6.72;;
60502;SDS011;51448;51.660;5.824;2023-04-25T02:39:06;22.20;;;6.35;;
60502;SDS011;51448;51.660;5.824;2023-04-25T02:41:34;22.02;;;7.20;;
60502;SDS011;51448;51.660;5.824;2023-04-25T02:44:02;19.27;;;6.95;;
60502;SDS011;51448;51.660;5.824;2023-04-25T02:46:29;18.90;;;6.53;;
60502;SDS011;51448;51.660;5.824;2023-04-25T02:49:06;18.58;;;7.45;;
60502;SDS011;51448;51.660;5.824;2023-04-25T02:51:35;23.45;;;7.18;;
60502;SDS011;51448;51.660;5.824;2023-04-25T02:54:02;23.00;;;7.70;;
60502;SDS011;51448;51.660;5.824;2023-04-25T02:59:03;21.85;;;6.72;;
60502;SDS011;51448;51.660;5.824;2023-04-25T03:01:32;22.75;;;8.00;;
60502;SDS011;51448;51.660;5.824;2023-04-25T03:03:59;25.33;;;7.15;;
60502;SDS011;51448;51.660;5.824;2023-04-25T03:06:27;19.65;;;6.88;;
60502;SDS011;51448;51.660;5.824;2023-04-25T03:08:55;22.73;;;6.70;;
60502;SDS011;51448;51.660;5.824;2023-04-25T03:11:24;23.73;;;7.50;;
60502;SDS011;51448;51.660;5.824;2023-04-25T03:13:53;22.67;;;8.15;;
60502;SDS011;51448;51.660;5.824;2023-04-25T03:16:21;22.35;;;7.75;;
60502;SDS011;51448;51.660;5.824;2023-04-25T03:18:49;20.88;;;7.78;;
60502;SDS011;51448;51.660;5.824;2023-04-25T03:21:18;22.58;;;7.15;;
60502;SDS011;51448;51.660;5.824;2023-04-25T03:23:45;24.27;;;7.53;;
60502;SDS011;51448;51.660;5.824;2023-04-25T03:26:13;20.27;;;6.88;;
60502;SDS011;51448;51.660;5.824;2023-04-25T03:28:41;23.92;;;6.90;;
60502;SDS011;51448;51.660;5.824;2023-04-25T03:31:09;21.48;;;7.68;;
60502;SDS011;51448;51.660;5.824;2023-04-25T03:33:36;24.08;;;8.25;;
60502;SDS011;51448;51.660;5.824;2023-04-25T03:36:04;17.17;;;7.05;;
60502;SDS011;51448;51.660;5.824;2023-04-25T03:38:32;20.58;;;7.60;;
60502;SDS011;51448;51.660;5.824;2023-04-25T03:41:01;21.90;;;7.85;;
60502;SDS011;51448;51.660;5.824;2023-04-25T03:43:48;20.48;;;7.47;;
60502;SDS011;51448;51.660;5.824;2023-04-25T03:46:17;20.88;;;7.70;;
60502;SDS011;51448;51.660;5.824;2023-04-25T03:48:46;24.73;;;7.68;;
60502;SDS011;51448;51.660;5.824;2023-04-25T03:51:19;20.02;;;7.90;;
60502;SDS011;51448;51.660;5.824;2023-04-25T03:53:47;23.73;;;8.25;;
60502;SDS011;51448;51.660;5.824;2023-04-25T03:56:18;20.33;;;7.93;;
60502;SDS011;51448;51.660;5.824;2023-04-25T03:58:47;24.77;;;8.15;;
60502;SDS011;51448;51.660;5.824;2023-04-25T04:01:17;18.45;;;7.85;;
60502;SDS011;51448;51.660;5.824;2023-04-25T04:03:45;23.05;;;7.68;;
60502;SDS011;51448;51.660;5.824;2023-04-25T04:06:13;21.75;;;8.13;;
60502;SDS011;51448;51.660;5.824;2023-04-25T04:08:46;24.00;;;7.53;;
60502;SDS011;51448;51.660;5.824;2023-04-25T04:11:14;23.35;;;7.85;;
60502;SDS011;51448;51.660;5.824;2023-04-25T04:13:42;25.10;;;7.55;;
60502;SDS011;51448;51.660;5.824;2023-04-25T04:16:09;19.35;;;7.03;;
60502;SDS011;51448;51.660;5.824;2023-04-25T04:18:37;20.80;;;7.20;;
60502;SDS011;51448;51.660;5.824;2023-04-25T04:21:05;21.30;;;8.05;;
60502;SDS011;51448;51.660;5.824;2023-04-25T04:23:35;29.35;;;8.73;;
60502;SDS011;51448;51.660;5.824;2023-04-25T04:26:07;22.27;;;8.02;;
60502;SDS011;51448;51.660;5.824;2023-04-25T04:28:54;19.15;;;7.05;;
60502;SDS011;51448;51.660;5.824;2023-04-25T04:31:35;22.83;;;8.27;;
60502;SDS011;51448;51.660;5.824;2023-04-25T04:34:03;21.27;;;7.93;;
60502;SDS011;51448;51.660;5.824;2023-04-25T04:36:33;25.05;;;7.97;;
60502;SDS011;51448;51.660;5.824;2023-04-25T04:39:01;21.75;;;7.80;;
60502;SDS011;51448;51.660;5.824;2023-04-25T04:41:37;20.42;;;8.65;;
60502;SDS011;51448;51.660;5.824;2023-04-25T04:44:11;18.85;;;8.05;;
60502;SDS011;51448;51.660;5.824;2023-04-25T04:46:49;31.73;;;8.93;;
60502;SDS011;51448;51.660;5.824;2023-04-25T04:49:35;22.75;;;7.68;;
60502;SDS011;51448;51.660;5.824;2023-04-25T04:52:19;23.77;;;8.13;;
60502;SDS011;51448;51.660;5.824;2023-04-25T04:55:16;21.33;;;7.57;;
60502;SDS011;51448;51.660;5.824;2023-04-25T04:57:52;26.05;;;8.15;;
60502;SDS011;51448;51.660;5.824;2023-04-25T05:00:43;23.92;;;7.50;;
60502;SDS011;51448;51.660;5.824;2023-04-25T05:03:28;21.45;;;8.30;;
60502;SDS011;51448;51.660;5.824;2023-04-25T05:06:24;23.77;;;8.40;;
60502;SDS011;51448;51.660;5.824;2023-04-25T05:09:11;22.83;;;8.27;;
60502;SDS011;51448;51.660;5.824;2023-04-25T05:11:57;22.42;;;7.80;;
60502;SDS011;51448;51.660;5.824;2023-04-25T05:14:34;23.52;;;7.82;;
60502;SDS011;51448;51.660;5.824;2023-04-25T05:17:25;22.65;;;7.68;;
60502;SDS011;51448;51.660;5.824;2023-04-25T05:20:19;21.00;;;7.30;;
60502;SDS011;51448;51.660;5.824;2023-04-25T05:22:49;24.25;;;7.57;;
60502;SDS011;51448;51.660;5.824;2023-04-25T05:25:38;26.40;;;7.57;;
60502;SDS011;51448;51.660;5.824;2023-04-25T05:28:31;30.25;;;8.02;;
60502;SDS011;51448;51.660;5.824;2023-04-25T05:31:17;19.48;;;7.03;;
60502;SDS011;51448;51.660;5.824;2023-04-25T05:33:57;22.95;;;7.47;;
60502;SDS011;51448;51.660;5.824;2023-04-25T05:36:33;22.70;;;7.35;;
60502;SDS011;51448;51.660;5.824;2023-04-25T05:39:00;38.45;;;7.80;;
60502;SDS011;51448;51.660;5.824;2023-04-25T05:41:51;22.92;;;8.10;;
60502;SDS011;51448;51.660;5.824;2023-04-25T05:44:38;20.25;;;7.72;;
60502;SDS011;51448;51.660;5.824;2023-04-25T05:47:26;21.05;;;7.57;;
60502;SDS011;51448;51.660;5.824;2023-04-25T05:50:00;20.42;;;7.75;;
60502;SDS011;51448;51.660;5.824;2023-04-25T05:52:52;20.83;;;7.25;;
60502;SDS011;51448;51.660;5.824;2023-04-25T05:55:31;23.92;;;7.65;;
60502;SDS011;51448;51.660;5.824;2023-04-25T05:58:01;18.10;;;7.18;;
60502;SDS011;51448;51.660;5.824;2023-04-25T06:00:29;22.40;;;7.38;;
60502;SDS011;51448;51.660;5.824;2023-04-25T06:02:57;19.20;;;6.35;;
60502;SDS011;51448;51.660;5.824;2023-04-25T06:05:25;16.33;;;6.75;;
60502;SDS011;51448;51.660;5.824;2023-04-25T06:07:53;20.27;;;6.15;;
60502;SDS011;51448;51.660;5.824;2023-04-25T06:10:23;21.05;;;6.78;;
60502;SDS011;51448;51.660;5.824;2023-04-25T06:12:51;16.65;;;6.18;;
60502;SDS011;51448;51.660;5.824;2023-04-25T06:15:21;19.65;;;6.43;;
60502;SDS011;51448;51.660;5.824;2023-04-25T06:17:55;17.98;;;6.05;;
60502;SDS011;51448;51.660;5.824;2023-04-25T06:20:23;19.63;;;6.22;;
60502;SDS011;51448;51.660;5.824;2023-04-25T06:22:54;17.90;;;5.50;;
60502;SDS011;51448;51.660;5.824;2023-04-25T06:25:29;18.58;;;5.57;;
60502;SDS011;51448;51.660;5.824;2023-04-25T06:27:59;17.00;;;5.50;;
60502;SDS011;51448;51.660;5.824;2023-04-25T06:30:27;16.27;;;5.85;;
60502;SDS011;51448;51.660;5.824;2023-04-25T06:33:02;16.20;;;5.18;;
60502;SDS011;51448;51.660;5.824;2023-04-25T06:35:31;15.70;;;4.60;;
60502;SDS011;51448;51.660;5.824;2023-04-25T06:37:59;14.82;;;4.53;;
60502;SDS011;51448;51.660;5.824;2023-04-25T06:40:27;14.00;;;4.70;;
60502;SDS011;51448;51.660;5.824;2023-04-25T06:42:55;16.38;;;4.53;;
60502;SDS011;51448;51.660;5.824;2023-04-25T06:45:46;13.00;;;4.00;;
60502;SDS011;51448;51.660;5.824;2023-04-25T06:48:15;14.80;;;4.32;;
60502;SDS011;51448;51.660;5.824;2023-04-25T06:50:43;17.05;;;4.07;;
60502;SDS011;51448;51.660;5.824;2023-04-25T06:53:12;14.85;;;3.65;;
60502;SDS011;51448;51.660;5.824;2023-04-25T06:55:42;15.75;;;3.80;;
60502;SDS011;51448;51.660;5.824;2023-04-25T06:58:17;14.65;;;3.65;;
60502;SDS011;51448;51.660;5.824;2023-04-25T07:00:54;15.10;;;3.40;;
60502;SDS011;51448;51.660;5.824;2023-04-25T07:03:24;14.90;;;4.28;;
60502;SDS011;51448;51.660;5.824;2023-04-25T07:05:57;13.45;;;3.13;;
60502;SDS011;51448;51.660;5.824;2023-04-25T07:08:25;13.02;;;3.20;;
60502;SDS011;51448;51.660;5.824;2023-04-25T07:10:53;12.90;;;3.33;;
60502;SDS011;51448;51.660;5.824;2023-04-25T07:13:20;15.48;;;3.83;;
60502;SDS011;51448;51.660;5.824;2023-04-25T07:15:48;14.90;;;3.90;;
60502;SDS011;51448;51.660;5.824;2023-04-25T07:18:18;8.70;;;2.20;;
60502;SDS011;51448;51.660;5.824;2023-04-25T07:20:46;13.90;;;3.17;;
60502;SDS011;51448;51.660;5.824;2023-04-25T07:23:14;15.77;;;3.25;;
60502;SDS011;51448;51.660;5.824;2023-04-25T07:25:42;16.75;;;3.60;;
60502;SDS011;51448;51.660;5.824;2023-04-25T07:28:10;14.73;;;3.28;;
60502;SDS011;51448;51.660;5.824;2023-04-25T07:30:38;13.18;;;2.95;;
60502;SDS011;51448;51.660;5.824;2023-04-25T07:33:05;12.50;;;2.92;;
60502;SDS011;51448;51.660;5.824;2023-04-25T07:35:33;11.27;;;2.65;;
60502;SDS011;51448;51.660;5.824;2023-04-25T07:38:02;11.27;;;2.90;;
60502;SDS011;51448;51.660;5.824;2023-04-25T07:40:30;11.70;;;2.88;;
60502;SDS011;51448;51.660;5.824;2023-04-25T07:43:04;11.95;;;2.60;;
60502;SDS011;51448;51.660;5.824;2023-04-25T07:45:38;9.85;;;2.75;;
60502;SDS011;51448;51.660;5.824;2023-04-25T07:48:07;11.45;;;2.90;;
60502;SDS011;51448;51.660;5.824;2023-04-25T07:50:37;13.88;;;3.08;;
60502;SDS011;51448;51.660;5.824;2023-04-25T07:53:04;9.93;;;2.45;;
60502;SDS011;51448;51.660;5.824;2023-04-25T07:55:37;14.20;;;2.97;;
60502;SDS011;51448;51.660;5.824;2023-04-25T07:58:15;12.02;;;3.13;;
60502;SDS011;51448;51.660;5.824;2023-04-25T08:00:45;11.00;;;2.57;;
60502;SDS011;51448;51.660;5.824;2023-04-25T08:03:42;12.60;;;2.47;;
60502;SDS011;51448;51.660;5.824;2023-04-25T08:06:18;13.23;;;2.88;;
60502;SDS011;51448;51.660;5.824;2023-04-25T08:08:55;11.30;;;2.47;;
60502;SDS011;51448;51.660;5.824;2023-04-25T08:11:29;14.30;;;2.72;;
60502;SDS011;51448;51.660;5.824;2023-04-25T08:13:57;13.45;;;2.47;;
60502;SDS011;51448;51.660;5.824;2023-04-25T08:16:26;13.80;;;2.80;;
60502;SDS011;51448;51.660;5.824;2023-04-25T08:18:54;10.30;;;2.33;;
60502;SDS011;51448;51.660;5.824;2023-04-25T08:21:22;10.38;;;3.05;;
60502;SDS011;51448;51.660;5.824;2023-04-25T08:23:50;13.50;;;2.42;;
60502;SDS011;51448;51.660;5.824;2023-04-25T08:26:28;11.52;;;2.75;;
60502;SDS011;51448;51.660;5.824;2023-04-25T08:28:57;11.32;;;2.13;;
60502;SDS011;51448;51.660;5.824;2023-04-25T08:31:25;12.55;;;2.17;;
60502;SDS011;51448;51.660;5.824;2023-04-25T08:33:59;8.93;;;1.77;;
60502;SDS011;51448;51.660;5.824;2023-04-25T08:36:32;9.77;;;2.08;;
60502;SDS011;51448;51.660;5.824;2023-04-25T08:39:17;10.18;;;1.83;;
60502;SDS011;51448;51.660;5.824;2023-04-25T08:42:02;11.70;;;2.05;;
60502;SDS011;51448;51.660;5.824;2023-04-25T08:44:35;10.15;;;2.03;;
60502;SDS011;51448;51.660;5.824;2023-04-25T08:47:03;8.55;;;2.08;;
60502;SDS011;51448;51.660;5.824;2023-04-25T08:49:39;13.00;;;2.00;;
60502;SDS011;51448;51.660;5.824;2023-04-25T08:52:13;5.32;;;1.67;;
60502;SDS011;51448;51.660;5.824;2023-04-25T08:54:44;12.38;;;2.08;;
60502;SDS011;51448;51.660;5.824;2023-04-25T08:57:16;9.18;;;1.70;;
60502;SDS011;51448;51.660;5.824;2023-04-25T08:59:46;15.00;;;2.38;;
60502;SDS011;51448;51.660;5.824;2023-04-25T09:02:15;12.73;;;2.47;;
60502;SDS011;51448;51.660;5.824;2023-04-25T09:04:48;12.38;;;2.45;;
60502;SDS011;51448;51.660;5.824;2023-04-25T09:07:16;10.20;;;1.95;;
60502;SDS011;51448;51.660;5.824;2023-04-25T09:09:48;11.88;;;2.47;;
60502;SDS011;51448;51.660;5.824;2023-04-25T09:12:21;10.45;;;1.90;;
60502;SDS011;51448;51.660;5.824;2023-04-25T09:17:58;6.68;;;1.50;;
60502;SDS011;51448;51.660;5.824;2023-04-25T09:20:33;10.55;;;1.70;;
60502;SDS011;51448;51.660;5.824;2023-04-25T09:23:14;9.27;;;1.58;;
60502;SDS011;51448;51.660;5.824;2023-04-25T09:25:42;7.45;;;1.70;;
60502;SDS011;51448;51.660;5.824;2023-04-25T09:28:10;11.77;;;1.98;;
60502;SDS011;51448;51.660;5.824;2023-04-25T09:30:38;10.35;;;1.95;;
60502;SDS011;51448;51.660;5.824;2023-04-25T09:33:20;10.02;;;1.73;;
60502;SDS011;51448;51.660;5.824;2023-04-25T09:36:02;8.55;;;1.77;;
60502;SDS011;51448;51.660;5.824;2023-04-25T09:38:48;11.93;;;2.22;;
60502;SDS011;51448;51.660;5.824;2023-04-25T09:41:37;8.20;;;1.73;;
60502;SDS011;51448;51.660;5.824;2023-04-25T09:44:06;9.55;;;1.92;;
60502;SDS011;51448;51.660;5.824;2023-04-25T09:46:37;12.18;;;2.28;;
60502;SDS011;51448;51.660;5.824;2023-04-25T09:49:10;9.60;;;1.70;;
60502;SDS011;51448;51.660;5.824;2023-04-25T09:51:56;10.23;;;1.60;;
60502;SDS011;51448;51.660;5.824;2023-04-25T09:57:32;9.02;;;2.25;;
60502;SDS011;51448;51.660;5.824;2023-04-25T10:00:02;12.00;;;1.88;;
60502;SDS011;51448;51.660;5.824;2023-04-25T10:02:45;9.52;;;2.13;;
60502;SDS011;51448;51.660;5.824;2023-04-25T10:05:34;10.63;;;2.60;;
60502;SDS011;51448;51.660;5.824;2023-04-25T10:08:04;9.32;;;2.20;;
60502;SDS011;51448;51.660;5.824;2023-04-25T10:10:34;13.27;;;2.80;;
60502;SDS011;51448;51.660;5.824;2023-04-25T10:13:04;11.20;;;2.30;;
60502;SDS011;51448;51.660;5.824;2023-04-25T10:15:34;11.52;;;2.17;;
60502;SDS011;51448;51.660;5.824;2023-04-25T10:18:06;9.32;;;1.92;;
60502;SDS011;51448;51.660;5.824;2023-04-25T10:20:34;12.38;;;1.83;;
60502;SDS011;51448;51.660;5.824;2023-04-25T10:23:12;7.78;;;2.10;;
60502;SDS011;51448;51.660;5.824;2023-04-25T10:25:42;10.10;;;2.03;;
60502;SDS011;51448;51.660;5.824;2023-04-25T10:28:11;10.30;;;2.10;;
60502;SDS011;51448;51.660;5.824;2023-04-25T10:30:53;9.75;;;2.28;;
60502;SDS011;51448;51.660;5.824;2023-04-25T10:33:29;8.85;;;1.85;;
60502;SDS011;51448;51.660;5.824;2023-04-25T10:36:13;11.82;;;2.15;;
60502;SDS011;51448;51.660;5.824;2023-04-25T10:38:45;11.25;;;2.20;;
60502;SDS011;51448;51.660;5.824;2023-04-25T10:41:14;8.52;;;1.58;;
60502;SDS011;51448;51.660;5.824;2023-04-25T10:43:42;8.27;;;1.90;;
60502;SDS011;51448;51.660;5.824;2023-04-25T10:46:18;5.43;;;1.40;;
60502;SDS011;51448;51.660;5.824;2023-04-25T10:48:51;6.22;;;1.48;;
60502;SDS011;51448;51.660;5.824;2023-04-25T10:51:23;5.88;;;1.52;;
60502;SDS011;51448;51.660;5.824;2023-04-25T10:54:08;8.38;;;1.52;;
60502;SDS011;51448;51.660;5.824;2023-04-25T10:56:40;7.03;;;1.40;;
60502;SDS011;51448;51.660;5.824;2023-04-25T10:59:13;7.63;;;1.42;;
60502;SDS011;51448;51.660;5.824;2023-04-25T11:01:46;7.88;;;1.45;;
60502;SDS011;51448;51.660;5.824;2023-04-25T11:04:29;6.95;;;1.58;;
60502;SDS011;51448;51.660;5.824;2023-04-25T11:09:50;7.68;;;1.63;;
60502;SDS011;51448;51.660;5.824;2023-04-25T11:12:18;9.88;;;1.80;;
60502;SDS011;51448;51.660;5.824;2023-04-25T11:14:45;8.73;;;1.40;;
60502;SDS011;51448;51.660;5.824;2023-04-25T11:17:15;6.38;;;1.15;;
60502;SDS011;51448;51.660;5.824;2023-04-25T11:19:43;5.85;;;1.25;;
60502;SDS011;51448;51.660;5.824;2023-04-25T11:22:11;8.00;;;1.83;;
60502;SDS011;51448;51.660;5.824;2023-04-25T11:24:39;5.53;;;1.15;;
60502;SDS011;51448;51.660;5.824;2023-04-25T11:27:07;6.07;;;1.80;;
60502;SDS011;51448;51.660;5.824;2023-04-25T11:29:35;7.15;;;1.48;;
60502;SDS011;51448;51.660;5.824;2023-04-25T11:32:03;8.52;;;1.35;;
60502;SDS011;51448;51.660;5.824;2023-04-25T11:34:31;7.20;;;1.17;;
60502;SDS011;51448;51.660;5.824;2023-04-25T11:37:01;7.07;;;1.23;;
60502;SDS011;51448;51.660;5.824;2023-04-25T11:39:30;6.82;;;1.52;;
60502;SDS011;51448;51.660;5.824;2023-04-25T11:41:58;6.35;;;1.23;;
60502;SDS011;51448;51.660;5.824;2023-04-25T11:44:27;7.65;;;1.73;;
60502;SDS011;51448;51.660;5.824;2023-04-25T11:46:55;7.88;;;1.75;;
60502;SDS011;51448;51.660;5.824;2023-04-25T11:49:23;6.40;;;1.55;;
60502;SDS011;51448;51.660;5.824;2023-04-25T11:51:52;8.25;;;2.13;;
60502;SDS011;51448;51.660;5.824;2023-04-25T11:54:19;10.38;;;1.88;;
60502;SDS011;51448;51.660;5.824;2023-04-25T11:56:47;8.20;;;1.67;;
60502;SDS011;51448;51.660;5.824;2023-04-25T11:59:15;8.07;;;1.60;;
60502;SDS011;51448;51.660;5.824;2023-04-25T12:01:49;11.55;;;2.08;;
60502;SDS011;51448;51.660;5.824;2023-04-25T12:04:21;12.88;;;2.38;;
60502;SDS011;51448;51.660;5.824;2023-04-25T12:06:53;9.13;;;1.92;;
60502;SDS011;51448;51.660;5.824;2023-04-25T12:09:29;6.78;;;1.65;;
60502;SDS011;51448;51.660;5.824;2023-04-25T12:11:59;6.88;;;1.45;;
60502;SDS011;51448;51.660;5.824;2023-04-25T12:14:31;8.98;;;1.60;;
60502;SDS011;51448;51.660;5.824;2023-04-25T12:17:02;6.93;;;1.73;;
60502;SDS011;51448;51.660;5.824;2023-04-25T12:19:33;9.00;;;1.80;;
60502;SDS011;51448;51.660;5.824;2023-04-25T12:22:03;6.85;;;1.33;;
60502;SDS011;51448;51.660;5.824;2023-04-25T12:24:47;11.10;;;2.50;;
60502;SDS011;51448;51.660;5.824;2023-04-25T12:27:15;6.93;;;1.30;;
60502;SDS011;51448;51.660;5.824;2023-04-25T12:29:52;7.93;;;1.53;;
60502;SDS011;51448;51.660;5.824;2023-04-25T12:32:23;4.53;;;0.98;;
60502;SDS011;51448;51.660;5.824;2023-04-25T12:34:51;10.98;;;1.95;;
60502;SDS011;51448;51.660;5.824;2023-04-25T12:37:19;5.53;;;0.88;;
60502;SDS011;51448;51.660;5.824;2023-04-25T12:39:46;13.88;;;3.63;;
60502;SDS011;51448;51.660;5.824;2023-04-25T12:42:14;13.63;;;1.77;;
60502;SDS011;51448;51.660;5.824;2023-04-25T12:44:42;4.10;;;1.00;;
60502;SDS011;51448;51.660;5.824;2023-04-25T12:47:09;5.57;;;1.10;;
60502;SDS011;51448;51.660;5.824;2023-04-25T12:49:37;5.38;;;0.85;;
60502;SDS011;51448;51.660;5.824;2023-04-25T12:52:05;5.97;;;0.90;;
60502;SDS011;51448;51.660;5.824;2023-04-25T12:54:33;5.30;;;1.00;;
60502;SDS011;51448;51.660;5.824;2023-04-25T12:57:01;6.75;;;1.30;;
60502;SDS011;51448;51.660;5.824;2023-04-25T12:59:30;4.28;;;1.10;;
60502;SDS011;51448;51.660;5.824;2023-04-25T13:01:57;9.98;;;0.90;;
60502;SDS011;51448;51.660;5.824;2023-04-25T13:04:25;5.55;;;1.30;;
60502;SDS011;51448;51.660;5.824;2023-04-25T13:06:53;4.72;;;1.20;;
60502;SDS011;51448;51.660;5.824;2023-04-25T13:09:20;7.43;;;1.30;;
60502;SDS011;51448;51.660;5.824;2023-04-25T13:11:48;7.47;;;1.67;;
60502;SDS011;51448;51.660;5.824;2023-04-25T13:14:16;6.57;;;1.50;;
60502;SDS011;51448;51.660;5.824;2023-04-25T13:16:43;8.13;;;1.42;;
60502;SDS011;51448;51.660;5.824;2023-04-25T13:19:11;7.25;;;1.58;;
60502;SDS011;51448;51.660;5.824;2023-04-25T13:21:38;7.82;;;1.85;;
60502;SDS011;51448;51.660;5.824;2023-04-25T13:24:06;8.32;;;1.40;;
60502;SDS011;51448;51.660;5.824;2023-04-25T13:26:34;9.75;;;1.63;;
60502;SDS011;51448;51.660;5.824;2023-04-25T13:29:02;7.50;;;1.60;;
60502;SDS011;51448;51.660;5.824;2023-04-25T13:31:30;10.73;;;2.10;;
60502;SDS011;51448;51.660;5.824;2023-04-25T13:33:58;7.35;;;1.55;;
60502;SDS011;51448;51.660;5.824;2023-04-25T13:36:26;7.60;;;1.55;;
60502;SDS011;51448;51.660;5.824;2023-04-25T13:38:54;8.35;;;1.80;;
60502;SDS011;51448;51.660;5.824;2023-04-25T13:41:22;9.48;;;2.00;;
60502;SDS011;51448;51.660;5.824;2023-04-25T13:43:50;12.50;;;1.90;;
60502;SDS011;51448;51.660;5.824;2023-04-25T13:46:18;7.32;;;1.48;;
60502;SDS011;51448;51.660;5.824;2023-04-25T13:49:06;7.70;;;1.50;;
60502;SDS011;51448;51.660;5.824;2023-04-25T13:51:39;7.43;;;2.00;;
60502;SDS011;51448;51.660;5.824;2023-04-25T13:54:07;7.63;;;1.80;;
60502;SDS011;51448;51.660;5.824;2023-04-25T13:56:35;7.75;;;1.55;;
60502;SDS011;51448;51.660;5.824;2023-04-25T13:59:03;7.05;;;1.48;;
60502;SDS011;51448;51.660;5.824;2023-04-25T14:01:31;6.28;;;1.55;;
60502;SDS011;51448;51.660;5.824;2023-04-25T14:04:02;8.68;;;1.23;;
60502;SDS011;51448;51.660;5.824;2023-04-25T14:06:33;8.98;;;1.80;;
60502;SDS011;51448;51.660;5.824;2023-04-25T14:09:01;4.93;;;1.33;;
60502;SDS011;51448;51.660;5.824;2023-04-25T14:11:31;6.75;;;1.40;;
60502;SDS011;51448;51.660;5.824;2023-04-25T14:13:58;7.07;;;1.60;;
60502;SDS011;51448;51.660;5.824;2023-04-25T14:16:26;7.53;;;1.48;;
60502;SDS011;51448;51.660;5.824;2023-04-25T14:18:54;6.32;;;1.25;;
60502;SDS011;51448;51.660;5.824;2023-04-25T14:21:22;6.82;;;1.20;;
60502;SDS011;51448;51.660;5.824;2023-04-25T14:23:50;6.88;;;1.30;;
60502;SDS011;51448;51.660;5.824;2023-04-25T14:26:18;5.63;;;1.00;;
60502;SDS011;51448;51.660;5.824;2023-04-25T14:28:46;5.90;;;1.17;;
60502;SDS011;51448;51.660;5.824;2023-04-25T14:31:13;6.25;;;1.40;;
60502;SDS011;51448;51.660;5.824;2023-04-25T14:33:44;4.93;;;1.25;;
60502;SDS011;51448;51.660;5.824;2023-04-25T14:36:12;4.45;;;1.10;;
60502;SDS011;51448;51.660;5.824;2023-04-25T14:38:41;5.13;;;1.05;;
60502;SDS011;51448;51.660;5.824;2023-04-25T14:41:09;6.65;;;1.27;;
60502;SDS011;51448;51.660;5.824;2023-04-25T14:43:37;3.95;;;1.10;;
60502;SDS011;51448;51.660;5.824;2023-04-25T14:46:07;3.08;;;0.85;;
60502;SDS011;51448;51.660;5.824;2023-04-25T14:48:36;4.90;;;0.80;;
60502;SDS011;51448;51.660;5.824;2023-04-25T14:51:04;3.75;;;0.90;;
60502;SDS011;51448;51.660;5.824;2023-04-25T14:53:32;7.40;;;1.35;;
60502;SDS011;51448;51.660;5.824;2023-04-25T14:55:59;4.18;;;0.80;;
60502;SDS011;51448;51.660;5.824;2023-04-25T14:58:27;5.50;;;1.25;;
60502;SDS011;51448;51.660;5.824;2023-04-25T15:00:55;5.95;;;1.13;;
60502;SDS011;51448;51.660;5.824;2023-04-25T15:03:23;8.23;;;1.55;;
60502;SDS011;51448;51.660;5.824;2023-04-25T15:05:51;9.32;;;1.30;;
60502;SDS011;51448;51.660;5.824;2023-04-25T15:08:21;6.40;;;1.60;;
60502;SDS011;51448;51.660;5.824;2023-04-25T15:10:49;5.85;;;1.75;;
60502;SDS011;51448;51.660;5.824;2023-04-25T15:13:18;7.40;;;1.40;;
60502;SDS011;51448;51.660;5.824;2023-04-25T15:15:46;10.20;;;1.75;;